Dobrodošli na spletni strani vremenske postaje Senovo. Vse informacije so informativnega značaja, saj vremenska postaja ni del državne mreže meteoroloških postaj.

AKTUALNIH OBVESTIL NI.


Posebna pozornost v zvezi z vremenskimi dogajanji ni potrebna.    Posebna pozornost v zvezi z vremenskimi dogajanji ni potrebna.

Pogled proti Armezu več informacij Pogled proti Armezu


Bohor več informacij Bohor


Lisca več informacij Lisca


Radar strel več informacij blitzortung!


Radar padavin več informacij rain snow radar


Obiščite še:

Template documentation
and downloads

And another site



METAR v bližini

   
LJLJ - Ljubljana
Posodobljeno: 20-04-2018 22:00
jasno  
jasno  
   Veter: različen 1.9 km/h
Veter: različen 1.9 km/h
Temperatura: 14°C
Točka rosišča: 10°C
Vlažnost: 77%
Zračni tlak: 1023 hPa
Vidljivost: More than 10 km
Podrobnosti o oblakih: jasno
LJLJ 202000Z VRB01KT CAVOK 14/10 Q1023 NOSIG
LJCE - Cerklje ob Krki
Posodobljeno: 20-04-2018 22:00
jasno  
jasno  
   Veter: VSV 5.6 km/h
Veter: VSV 5.6 km/h
Temperatura: 16°C
Točka rosišča: 11°C
Vlažnost: 72%
Zračni tlak: 1023 hPa
Vidljivost: More than 10 km
Podrobnosti o oblakih: jasno
LJCE 202000Z 06003KT 020V080 CAVOK 16/11 Q1023 RMK BLU
LJMB - Maribor
Posodobljeno: 20-04-2018 22:00
jasno  
jasno  
   Veter: SZ 5.6 km/h
Veter: SZ 5.6 km/h
Temperatura: 14°C
Točka rosišča: 9°C
Vlažnost: 72%
Zračni tlak: 1023 hPa
Vidljivost: More than 10 km
Podrobnosti o oblakih: jasno
LJMB 202000Z 32003KT CAVOK 14/09 Q1023
LJPZ - Portorož
Posodobljeno: 20-04-2018 22:00
jasno  
jasno  
   Veter: JV 7.4 km/h
Veter: JV 7.4 km/h
Temperatura: 18°C
Točka rosišča: 8°C
Vlažnost: 52%
Zračni tlak: 1021 hPa
Vidljivost: More than 10 km
Podrobnosti o oblakih: jasno
LJPZ 202000Z 14004KT CAVOK 18/08 Q1021
LDRI - Rijeka, Airport, Croatia
Posodobljeno: 20-04-2018 22:00
jasno  
jasno  
   Veter: SSV 7.4 km/h
Veter: SSV 7.4 km/h
Temperatura: 22°C
Točka rosišča: 10°C
Vlažnost: 47%
Zračni tlak: 1021 hPa
Vidljivost: More than 10 km
Podrobnosti o oblakih: jasno
LDRI 202000Z 02004KT CAVOK 22/10 Q1021
LOWK - Klagenfurt, Airport, Avstia
Posodobljeno: 20-04-2018 21:50
delno oblačno  
delno oblačno  
   Veter: različen 1.9 km/h
Veter: različen 1.9 km/h
Temperatura: 18°C
Točka rosišča: 7°C
Vlažnost: 49%
Zračni tlak: 1023 hPa
Oblaki: delno oblačno
Vidljivost: More than 10 km
Podrobnosti o oblakih: delno oblačno
LOWK 201950Z AUTO VRB01KT 9999 NSC 18/07 Q1023 NOSIG

Script developed by  Saratoga-weather.org Adapted for the template by  Weerstation Leuven

Vremenski podatki so objavljeni na:

European Weather Network

WeatherCloud

Weather Underground

AWEKAS

HAMweather, WeatherForYou, PWS Weather

MapView

Geostik

Slovenia weather network

Oprema, ki se uporablja:

Vremenski program
Cumulus

Vremenski server
Asus

Cumulus

Asus